Time;durP1;ratioP1;P1;durP2;ratioP2;P2;SDS_P1;SDS_P2;PMS_P1;PMS_P2;Temp;Humidity;BMP_temperature;BMP_pressure;BME280_temperature;BME280_humidity;BME280_pressure;Samples;Min_cycle;Max_cycle;Signal;HPM_P1;HPM_P2
2022/08/09 00:00:05;;;;;;;;;;;;;;;24.65;50.95;102610.59;7283058;19;152087;-62
2022/08/09 00:02:33;;;;;;;;;;;;;;;24.66;50.88;102608.59;7281846;19;154397;-62
2022/08/09 00:05:01;;;;;;;;;;;;;;;24.66;51.09;102615.09;7278914;19;153472;-62
2022/08/09 00:07:48;;;;;;;;;;;;;;;24.67;50.44;102610.25;7283700;19;152287;-62
2022/08/09 00:10:19;;;;;;;;;;;;;;;24.65;50.93;102604.94;7282947;19;152943;-62
2022/08/09 00:12:50;;;;;;;;;;;;;;;24.68;50.72;102598.66;7280046;19;154231;-62
2022/08/09 00:15:19;;;;;;;;;;;;;;;24.67;51.13;102604.59;7281068;19;152211;-62
2022/08/09 00:18:01;;;;;;;;;;;;;;;24.65;50.67;102604.94;7285183;19;153619;-63
2022/08/09 00:20:37;;;;;;;;;;;;;;;24.63;50.92;102607.19;7280404;19;152116;-62
2022/08/09 00:23:18;;;;;;;;;;;;;;;24.65;50.61;102607.75;7282147;19;153712;-62
2022/08/09 00:26:06;;;;;;;;;;;;;;;24.65;50.41;102604.94;7281237;19;155933;-61
2022/08/09 00:28:33;;;;;;;;;;;;;;;24.65;50.85;102604.06;7280734;19;152413;-61
2022/08/09 00:31:03;;;;;;;;;;;;;;;24.66;50.96;102605.78;7281917;19;152905;-62
2022/08/09 00:33:51;;;;;;;;;;;;;;;24.65;50.64;102598.44;7279082;19;155523;-62
2022/08/09 00:36:18;;;;;;;;;;;;;;;24.63;51.05;102598.72;7281268;19;151614;-62
2022/08/09 00:38:45;;;;;;;;;;;;;;;24.64;50.71;102594.75;7282551;19;153206;-62
2022/08/09 00:41:21;;;;;;;;;;;;;;;24.63;50.42;102587.41;7287071;19;153724;-62
2022/08/09 00:44:08;;;;;;;;;;;;;;;24.65;50.62;102595.59;7282181;19;154431;-62
2022/08/09 00:46:51;;;;;;;;;;;;;;;24.63;51.16;102589.38;7279825;19;155490;-62
2022/08/09 00:49:23;;;;;;;;;;;;;;;24.62;50.95;102585.72;7279082;19;153737;-62
2022/08/09 00:51:55;;;;;;;;;;;;;;;24.65;50.69;102590.78;7279464;19;153688;-62
2022/08/09 00:54:22;;;;;;;;;;;;;;;24.63;50.80;102595.88;7278188;19;154050;-62
2022/08/09 00:57:02;;;;;;;;;;;;;;;24.64;50.86;102600.41;7280449;19;152752;-62
2022/08/09 00:59:38;;;;;;;;;;;;;;;24.63;50.77;102590.22;7282353;19;152670;-62
2022/08/09 01:02:14;;;;;;;;;;;;;;;24.60;51.38;102596.50;7278786;19;154364;-62
2022/08/09 01:04:48;;;;;;;;;;;;;;;24.63;51.11;102586.56;7286947;19;152274;-62
2022/08/09 01:07:21;;;;;;;;;;;;;;;24.63;50.94;102592.22;7280194;19;154000;-62
2022/08/09 01:10:19;;;;;;;;;;;;;;;24.62;51.34;102593.38;7276192;19;152625;-62
2022/08/09 01:12:56;;;;;;;;;;;;;;;24.62;51.04;102599.03;7280563;19;154043;-62
2022/08/09 01:15:29;;;;;;;;;;;;;;;24.62;51.28;102593.38;7279848;19;153422;-63
2022/08/09 01:18:06;;;;;;;;;;;;;;;24.62;51.17;102601.84;7278802;19;152666;-61
2022/08/09 01:20:39;;;;;;;;;;;;;;;24.60;51.32;102601.28;7277509;19;152808;-62
2022/08/09 01:23:13;;;;;;;;;;;;;;;24.61;51.23;102611.47;7280265;19;153897;-62
2022/08/09 01:26:06;;;;;;;;;;;;;;;24.59;51.33;102603.28;7283675;19;152842;-61
2022/08/09 01:28:36;;;;;;;;;;;;;;;24.59;51.37;102606.09;7293661;19;153473;-62
2022/08/09 01:31:06;;;;;;;;;;;;;;;24.59;51.44;102610.91;7286729;19;152016;-62
2022/08/09 01:33:39;;;;;;;;;;;;;;;24.59;51.28;102603.28;7285697;19;153058;-62
2022/08/09 01:36:07;;;;;;;;;;;;;;;24.60;51.22;102602.16;7286308;19;153878;-62
2022/08/09 01:38:36;;;;;;;;;;;;;;;24.61;51.13;102603.00;7283941;19;152937;-62
2022/08/09 01:41:09;;;;;;;;;;;;;;;24.57;51.47;102602.75;7285604;19;152475;-62
2022/08/09 01:43:38;;;;;;;;;;;;;;;24.57;51.47;102599.06;7285503;19;154174;-62
2022/08/09 01:46:17;;;;;;;;;;;;;;;24.59;51.38;102600.44;7285400;19;152912;-62
2022/08/09 01:48:52;;;;;;;;;;;;;;;24.59;51.38;102599.59;7290325;19;152283;-62
2022/08/09 01:51:20;;;;;;;;;;;;;;;24.60;51.50;102607.78;7287671;19;152383;-62
2022/08/09 01:53:52;;;;;;;;;;;;;;;24.58;51.53;102603.56;7286238;19;153561;-62
2022/08/09 01:56:25;;;;;;;;;;;;;;;24.58;51.76;102606.38;7285644;19;152723;-62
2022/08/09 01:58:54;;;;;;;;;;;;;;;24.57;51.47;102605.56;7283575;19;152897;-62
2022/08/09 02:01:21;;;;;;;;;;;;;;;24.56;51.53;102612.34;7286816;19;152731;-62
2022/08/09 02:04:10;;;;;;;;;;;;;;;24.56;51.93;102614.34;7282384;19;155304;-62
2022/08/09 02:09:29;;;;;;;;;;;;;;;24.59;51.53;102605.25;7286055;19;152810;-62
2022/08/09 02:12:09;;;;;;;;;;;;;;;24.63;51.49;102609.16;7290839;19;152394;-62
2022/08/09 02:14:45;;;;;;;;;;;;;;;24.56;51.70;102601.06;7285719;19;152221;-62
2022/08/09 02:17:18;;;;;;;;;;;;;;;24.55;51.91;102610.66;7284408;19;153361;-62
2022/08/09 02:20:05;;;;;;;;;;;;;;;24.54;51.84;102608.13;7283399;19;152541;-62
2022/08/09 02:22:46;;;;;;;;;;;;;;;24.54;51.83;102608.97;7285619;19;153499;-62
2022/08/09 02:25:19;;;;;;;;;;;;;;;24.55;51.50;102621.13;7281018;19;154502;-62
2022/08/09 02:27:55;;;;;;;;;;;;;;;24.53;51.75;102623.41;7286746;19;152261;-62
2022/08/09 02:30:32;;;;;;;;;;;;;;;24.57;51.65;102621.69;7285910;19;152566;-62
2022/08/09 02:33:00;;;;;;;;;;;;;;;24.53;51.76;102614.94;7284153;19;154168;-62
2022/08/09 02:35:27;;;;;;;;;;;;;;;24.52;51.94;102618.91;7291081;19;152097;-62
2022/08/09 02:38:17;;;;;;;;;;;;;;;24.53;51.70;102615.75;7279743;19;154647;-62
2022/08/09 02:40:56;;;;;;;;;;;;;;;24.52;51.90;102619.75;7285123;19;152293;-62
2022/08/09 02:43:25;;;;;;;;;;;;;;;24.50;51.87;102619.19;7284789;19;152671;-62
2022/08/09 02:45:55;;;;;;;;;;;;;;;24.50;51.83;102622.00;7284471;19;152381;-62
2022/08/09 02:48:22;;;;;;;;;;;;;;;24.51;52.09;102615.22;7283155;19;151855;-62
2022/08/09 02:50:58;;;;;;;;;;;;;;;24.51;51.63;102611.53;7279313;19;153441;-62
2022/08/09 02:53:30;;;;;;;;;;;;;;;24.54;52.05;102617.44;7285040;19;153645;-62
2022/08/09 02:56:01;;;;;;;;;;;;;;;24.50;51.89;102613.53;7283837;19;152777;-62
2022/08/09 02:58:31;;;;;;;;;;;;;;;24.49;52.19;102608.16;7289777;19;153337;-62
2022/08/09 03:01:07;;;;;;;;;;;;;;;24.46;52.39;102606.78;7284848;19;151995;-61
2022/08/09 03:03:38;;;;;;;;;;;;;;;24.47;52.23;102604.81;7281253;19;153562;-62
2022/08/09 03:06:26;;;;;;;;;;;;;;;24.46;52.19;102606.78;7283670;19;156365;-62
2022/08/09 03:08:57;;;;;;;;;;;;;;;24.46;52.32;102606.78;7284957;19;152700;-62
2022/08/09 03:11:25;;;;;;;;;;;;;;;24.46;52.20;102609.59;7284336;19;152930;-62
2022/08/09 03:14:12;;;;;;;;;;;;;;;24.46;52.62;102608.75;7284179;19;156297;-62
2022/08/09 03:16:41;;;;;;;;;;;;;;;24.47;52.17;102600.00;7284906;19;152101;-62
2022/08/09 03:19:15;;;;;;;;;;;;;;;24.46;52.11;102611.59;7277118;19;152771;-62
2022/08/09 03:22:02;;;;;;;;;;;;;;;24.47;52.17;102604.81;7290174;19;157182;-62
2022/08/09 03:24:29;;;;;;;;;;;;;;;24.48;52.38;102600.84;7284697;19;154267;-62
2022/08/09 03:27:08;;;;;;;;;;;;;;;24.46;52.59;102606.78;7284998;19;155829;-62
2022/08/09 03:29:37;;;;;;;;;;;;;;;24.47;52.38;102602.81;7283963;19;153024;-62
2022/08/09 03:32:24;;;;;;;;;;;;;;;24.46;51.99;102605.94;7282748;19;154887;-62
2022/08/09 03:34:52;;;;;;;;;;;;;;;24.44;52.35;102609.03;7280521;19;153746;-62
2022/08/09 03:37:21;;;;;;;;;;;;;;;24.44;52.54;102603.38;7283298;19;153735;-62
2022/08/09 03:40:09;;;;;;;;;;;;;;;24.44;52.86;102602.56;7283109;19;154670;-62
2022/08/09 03:42:38;;;;;;;;;;;;;;;24.43;52.62;102598.91;7281363;19;154062;-62
2022/08/09 03:45:09;;;;;;;;;;;;;;;24.42;52.51;102602.84;7290710;19;151933;-62
2022/08/09 03:47:36;;;;;;;;;;;;;;;24.42;52.72;102613.31;7281993;19;153818;-62
2022/08/09 03:50:08;;;;;;;;;;;;;;;24.40;52.53;102613.59;7280128;19;152213;-62
2022/08/09 03:52:37;;;;;;;;;;;;;;;24.42;52.79;102610.50;7283815;19;153374;-62
2022/08/09 03:55:04;;;;;;;;;;;;;;;24.41;52.63;102608.78;7281274;19;153851;-62
2022/08/09 03:57:35;;;;;;;;;;;;;;;24.39;52.97;102599.78;7283884;19;152191;-62
2022/08/09 04:00:19;;;;;;;;;;;;;;;24.38;52.81;102606.56;7281548;19;153117;-62
2022/08/09 04:02:48;;;;;;;;;;;;;;;24.40;52.43;102610.78;7280151;19;153536;-62
2022/08/09 04:05:19;;;;;;;;;;;;;;;24.36;52.77;102607.69;7288202;19;152833;-62
2022/08/09 04:07:54;;;;;;;;;;;;;;;24.36;52.86;102601.19;7280812;19;153809;-62
2022/08/09 04:10:23;;;;;;;;;;;;;;;24.33;53.02;102602.66;7282306;19;151919;-62
2022/08/09 04:12:55;;;;;;;;;;;;;;;24.34;52.86;102600.66;7281500;19;153029;-62
2022/08/09 04:15:27;;;;;;;;;;;;;;;24.34;53.00;102598.69;7282548;19;153920;-62
2022/08/09 04:18:13;;;;;;;;;;;;;;;24.33;52.78;102602.66;7281482;19;152411;-62
2022/08/09 04:20:44;;;;;;;;;;;;;;;24.35;52.86;102597.53;7280235;19;153045;-62
2022/08/09 04:23:17;;;;;;;;;;;;;;;24.32;52.82;102600.97;7282398;19;155967;-62
2022/08/09 04:25:50;;;;;;;;;;;;;;;24.31;52.90;102602.09;7281656;19;154056;-62
2022/08/09 04:28:21;;;;;;;;;;;;;;;24.34;52.72;102604.34;7288966;19;152423;-61
2022/08/09 04:31:05;;;;;;;;;;;;;;;24.32;52.90;102605.75;7282699;19;152308;-62
2022/08/09 04:33:39;;;;;;;;;;;;;;;24.30;53.11;102608.88;7281576;19;152612;-62
2022/08/09 04:36:22;;;;;;;;;;;;;;;24.30;53.10;102605.22;7281705;19;154263;-62
2022/08/09 04:38:50;;;;;;;;;;;;;;;24.31;52.63;102606.88;7280106;19;152656;-62
2022/08/09 04:41:19;;;;;;;;;;;;;;;24.29;53.25;102607.22;7281028;19;153522;-62
2022/08/09 04:43:50;;;;;;;;;;;;;;;24.34;52.81;102617.63;7281301;19;154002;-63
2022/08/09 04:46:34;;;;;;;;;;;;;;;24.30;52.79;102613.69;7282423;19;152897;-62
2022/08/09 04:49:22;;;;;;;;;;;;;;;24.30;52.79;102620.16;7279356;19;155406;-62
2022/08/09 04:52:08;;;;;;;;;;;;;;;24.29;52.89;102617.66;7288307;19;156504;-61
2022/08/09 04:54:35;;;;;;;;;;;;;;;24.30;52.96;102625.00;7280558;19;153733;-62
2022/08/09 04:57:03;;;;;;;;;;;;;;;24.28;52.78;102624.44;7280911;19;153881;-62
2022/08/09 04:59:34;;;;;;;;;;;;;;;24.31;52.73;102615.38;7279153;19;152149;-62
2022/08/09 05:02:01;;;;;;;;;;;;;;;24.28;52.88;102624.44;7288008;19;152676;-62
2022/08/09 05:04:28;;;;;;;;;;;;;;;24.26;53.35;102624.72;7285290;19;153274;-62
2022/08/09 05:06:57;;;;;;;;;;;;;;;24.27;52.89;102632.06;7289414;19;152458;-62
2022/08/09 05:09:23;;;;;;;;;;;;;;;24.27;52.79;102631.22;7288227;19;152785;-62
2022/08/09 05:12:08;;;;;;;;;;;;;;;24.27;52.56;102628.38;7287248;19;153322;-63
2022/08/09 05:14:37;;;;;;;;;;;;;;;24.23;52.96;102636.63;7295007;19;152452;-63
2022/08/09 05:17:06;;;;;;;;;;;;;;;24.24;53.00;102629.00;7286154;19;154206;-62
2022/08/09 05:19:55;;;;;;;;;;;;;;;24.23;52.86;102633.78;7283402;19;152093;-62
2022/08/09 05:22:23;;;;;;;;;;;;;;;24.26;53.07;102641.66;7286482;19;152845;-62
2022/08/09 05:25:11;;;;;;;;;;;;;;;24.26;52.45;102638.84;7285111;19;157312;-62
2022/08/09 05:27:40;;;;;;;;;;;;;;;24.25;52.90;102645.66;7288163;19;152250;-62
2022/08/09 05:30:14;;;;;;;;;;;;;;;24.25;52.54;102647.63;7286718;19;153562;-62
2022/08/09 05:32:45;;;;;;;;;;;;;;;24.23;52.85;102642.28;7286530;19;154025;-61
2022/08/09 05:35:19;;;;;;;;;;;;;;;24.19;53.42;102644.00;7283727;19;152033;-62
2022/08/09 05:37:50;;;;;;;;;;;;;;;24.20;53.42;102648.50;7295207;19;154392;-62
2022/08/09 05:40:18;;;;;;;;;;;;;;;24.18;53.20;102647.94;7284184;19;152747;-62
2022/08/09 05:42:47;;;;;;;;;;;;;;;24.19;53.23;102651.63;7287617;19;152286;-62
2022/08/09 05:45:15;;;;;;;;;;;;;;;24.17;53.39;102651.91;7286080;19;153420;-62
2022/08/09 05:47:41;;;;;;;;;;;;;;;24.19;53.27;102649.63;7286945;19;153477;-62
2022/08/09 05:50:17;;;;;;;;;;;;;;;24.18;53.39;102655.56;7285690;19;153536;-62
2022/08/09 05:53:04;;;;;;;;;;;;;;;24.13;53.17;102664.88;7284386;19;156265;-62
2022/08/09 05:55:37;;;;;;;;;;;;;;;24.16;53.54;102666.34;7285890;19;152299;-62
2022/08/09 05:58:03;;;;;;;;;;;;;;;24.16;53.32;102678.47;7285311;19;151873;-62
2022/08/09 06:00:32;;;;;;;;;;;;;;;24.19;53.23;102682.69;7293116;19;152445;-62
2022/08/09 06:03:00;;;;;;;;;;;;;;;24.19;53.61;102686.34;7283586;19;152699;-62
2022/08/09 06:05:28;;;;;;;;;;;;;;;24.16;53.49;102688.94;7283248;19;153782;-62
2022/08/09 06:08:16;;;;;;;;;;;;;;;24.14;53.82;102702.44;7288016;19;153407;-62
2022/08/09 06:10:51;;;;;;;;;;;;;;;24.15;53.64;102712.63;7283842;19;154474;-62
2022/08/09 06:13:20;;;;;;;;;;;;;;;24.13;53.90;102703.56;7284146;19;153283;-62
2022/08/09 06:15:48;;;;;;;;;;;;;;;24.12;54.16;102702.72;7286187;19;152497;-62
2022/08/09 06:18:18;;;;;;;;;;;;;;;24.14;53.86;102710.94;7287685;19;152561;-62
2022/08/09 06:20:55;;;;;;;;;;;;;;;24.14;54.25;102705.28;7290311;19;153293;-62
2022/08/09 06:23:24;;;;;;;;;;;;;;;24.11;53.81;102706.72;7286280;19;152870;-62
2022/08/09 06:26:11;;;;;;;;;;;;;;;24.10;54.18;102709.81;7285023;19;156827;-61
2022/08/09 06:28:37;;;;;;;;;;;;;;;24.16;53.44;102708.69;7285475;19;153181;-62
2022/08/09 06:31:08;;;;;;;;;;;;;;;24.13;53.86;102704.44;7286270;19;153174;-62
2022/08/09 06:33:35;;;;;;;;;;;;;;;24.12;54.21;102710.38;7283735;19;152875;-62
2022/08/09 06:36:07;;;;;;;;;;;;;;;24.09;54.09;102714.63;7286342;19;151879;-62
2022/08/09 06:38:34;;;;;;;;;;;;;;;24.14;53.87;102713.75;7286090;19;153373;-62
2022/08/09 06:41:03;;;;;;;;;;;;;;;24.15;53.86;102723.91;7282545;19;155239;-62
2022/08/09 06:43:45;;;;;;;;;;;;;;;24.16;54.17;102728.47;7291826;19;151706;-62
2022/08/09 06:46:12;;;;;;;;;;;;;;;24.12;54.47;102730.97;7283577;19;152271;-62
2022/08/09 06:48:58;;;;;;;;;;;;;;;24.11;54.06;102729.31;7283087;19;152296;-62
2022/08/09 06:51:26;;;;;;;;;;;;;;;24.19;54.42;102731.56;7285272;19;154315;-62
2022/08/09 06:53:53;;;;;;;;;;;;;;;24.16;54.31;102736.94;7283666;19;154012;-62
2022/08/09 06:56:20;;;;;;;;;;;;;;;24.13;54.21;102734.66;7283733;19;152086;-62
2022/08/09 06:58:56;;;;;;;;;;;;;;;24.11;54.64;102732.13;7284202;19;154998;-62
2022/08/09 07:01:42;;;;;;;;;;;;;;;24.18;54.67;102737.47;7284256;19;156890;-62
2022/08/09 07:04:25;;;;;;;;;;;;;;;24.12;54.90;102739.44;7283482;19;152590;-62
2022/08/09 07:06:53;;;;;;;;;;;;;;;24.10;55.17;102752.19;7291922;19;153368;-62
2022/08/09 07:09:29;;;;;;;;;;;;;;;24.07;55.01;102747.13;7284967;19;151989;-62
2022/08/09 07:12:15;;;;;;;;;;;;;;;24.08;55.16;102745.97;7284144;19;154717;-62
2022/08/09 07:14:44;;;;;;;;;;;;;;;24.07;55.71;102750.81;7282693;19;153740;-62
2022/08/09 07:17:19;;;;;;;;;;;;;;;24.07;55.32;102753.63;7283393;19;152609;-62
2022/08/09 07:19:47;;;;;;;;;;;;;;;24.07;55.12;102753.63;7280735;19;152998;-62
2022/08/09 07:22:21;;;;;;;;;;;;;;;24.12;54.79;102747.09;7283254;19;154094;-62
2022/08/09 07:24:59;;;;;;;;;;;;;;;24.11;54.97;102760.38;7282260;19;152657;-62
2022/08/09 07:27:26;;;;;;;;;;;;;;;24.12;54.86;102750.75;7285423;19;153539;-62
2022/08/09 07:30:08;;;;;;;;;;;;;;;24.08;55.10;102738.34;7290170;19;154454;-62
2022/08/09 07:32:34;;;;;;;;;;;;;;;24.09;55.20;102734.38;7283342;19;153126;-62
2022/08/09 07:35:03;;;;;;;;;;;;;;;24.09;55.43;102733.53;7278934;19;153783;-62
2022/08/09 07:37:40;;;;;;;;;;;;;;;24.09;55.25;102733.53;7284680;19;152297;-62
2022/08/09 07:40:13;;;;;;;;;;;;;;;24.07;55.25;102736.69;7282414;19;153529;-62
2022/08/09 07:42:47;;;;;;;;;;;;;;;24.09;55.57;102739.19;7284472;19;153384;-62
2022/08/09 07:45:15;;;;;;;;;;;;;;;24.10;55.56;102736.09;7284855;19;152846;-62
2022/08/09 07:48:02;;;;;;;;;;;;;;;24.11;55.30;102734.13;7285688;19;157204;-62
2022/08/09 07:50:30;;;;;;;;;;;;;;;24.08;55.43;102732.69;7281420;19;153547;-62
2022/08/09 07:53:02;;;;;;;;;;;;;;;24.08;55.25;102721.41;7292821;19;151906;-62
2022/08/09 07:55:30;;;;;;;;;;;;;;;24.09;55.31;102731.56;7283541;19;153519;-62
2022/08/09 07:58:16;;;;;;;;;;;;;;;24.08;55.60;102727.03;7283862;19;152130;-62
2022/08/09 08:00:43;;;;;;;;;;;;;;;24.10;55.65;102738.91;7279003;19;153159;-62
2022/08/09 08:03:31;;;;;;;;;;;;;;;24.08;55.83;102732.69;7279243;19;154242;-62
2022/08/09 08:05:58;;;;;;;;;;;;;;;24.07;56.12;102738.66;7279752;19;152151;-62
2022/08/09 08:08:24;;;;;;;;;;;;;;;24.09;55.86;102744.84;7284910;19;152923;-63
2022/08/09 08:11:11;;;;;;;;;;;;;;;24.09;55.52;102742.00;7281430;19;156334;-62
2022/08/09 08:13:58;;;;;;;;;;;;;;;24.08;55.86;102746.81;7289210;19;152206;-62
2022/08/09 08:16:24;;;;;;;;;;;;;;;24.09;55.80;102745.69;7282020;19;153848;-62
2022/08/09 08:18:57;;;;;;;;;;;;;;;24.10;55.58;102744.56;7278677;19;154528;-62
2022/08/09 08:21:24;;;;;;;;;;;;;;;24.08;55.50;102746.81;7282274;19;152693;-62
2022/08/09 08:23:52;;;;;;;;;;;;;;;24.10;55.30;102746.53;7281938;19;153337;-62
2022/08/09 08:26:21;;;;;;;;;;;;;;;24.11;55.60;102743.44;7282452;19;152888;-62
2022/08/09 08:29:07;;;;;;;;;;;;;;;24.08;55.65;102735.50;7280809;19;154339;-62
2022/08/09 08:31:34;;;;;;;;;;;;;;;24.09;55.59;102742.84;7282283;19;154325;-62
2022/08/09 08:34:21;;;;;;;;;;;;;;;24.12;55.21;102745.09;7263736;19;156580;-62
2022/08/09 08:36:51;;;;;;;;;;;;;;;24.14;55.62;102742.00;7277230;19;156037;-63
2022/08/09 08:39:17;;;;;;;;;;;;;;;24.13;55.32;102743.13;7281583;19;152398;-62
2022/08/09 08:41:47;;;;;;;;;;;;;;;24.12;55.19;102753.56;7281411;19;152649;-62
2022/08/09 08:44:18;;;;;;;;;;;;;;;24.14;55.28;102753.28;7281084;19;154754;-62
2022/08/09 08:46:55;;;;;;;;;;;;;;;24.12;54.86;102756.41;7280534;19;152177;-62
2022/08/09 08:49:32;;;;;;;;;;;;;;;24.11;55.14;102748.22;7277057;19;153831;-62
2022/08/09 08:52:15;;;;;;;;;;;;;;;24.12;54.74;102750.75;7278519;19;153160;-62
2022/08/09 08:55:01;;;;;;;;;;;;;;;24.13;54.08;102760.91;7280056;19;152464;-62
2022/08/09 08:57:31;;;;;;;;;;;;;;;24.14;54.17;102758.94;7279059;19;153527;-62
2022/08/09 09:00:02;;;;;;;;;;;;;;;24.13;53.96;102757.25;7285670;19;154082;-62
2022/08/09 09:02:47;;;;;;;;;;;;;;;24.13;53.58;102754.41;7278997;19;154010;-62
2022/08/09 09:05:20;;;;;;;;;;;;;;;24.16;53.21;102759.53;7277413;19;153083;-62
2022/08/09 09:07:59;;;;;;;;;;;;;;;24.16;53.67;102759.53;7281434;19;152036;-62
2022/08/09 09:10:28;;;;;;;;;;;;;;;24.20;53.60;102757.81;7282675;19;154195;-63
2022/08/09 09:12:55;;;;;;;;;;;;;;;24.19;53.53;102756.97;7280143;19;153634;-62
2022/08/09 09:15:21;;;;;;;;;;;;;;;24.20;53.47;102755.00;7281257;19;152260;-62
2022/08/09 09:17:54;;;;;;;;;;;;;;;24.21;53.58;102746.22;7281319;19;154258;-61
2022/08/09 09:20:20;;;;;;;;;;;;;;;24.21;53.31;102742.56;7276243;19;153943;-62
2022/08/09 09:22:55;;;;;;;;;;;;;;;24.21;53.58;102745.41;7288597;19;152833;-62
2022/08/09 09:25:31;;;;;;;;;;;;;;;24.23;52.86;102751.59;7278473;19;152793;-62
2022/08/09 09:28:18;;;;;;;;;;;;;;;24.22;52.51;102752.72;7278497;19;152761;-62
2022/08/09 09:31:11;;;;;;;;;;;;;;;24.22;52.43;102747.06;7281091;19;156093;-62
2022/08/09 09:34:13;;;;;;;;;;;;;;;24.22;52.04;102742.25;7274908;19;156679;-62
2022/08/09 09:36:44;;;;;;;;;;;;;;;24.23;52.84;102741.13;7279669;19;153143;-62
2022/08/09 09:39:21;;;;;;;;;;;;;;;24.27;52.03;102732.91;7280689;19;152931;-62
2022/08/09 09:41:51;;;;;;;;;;;;;;;24.26;52.46;102731.22;7276951;19;154305;-63
2022/08/09 09:44:22;;;;;;;;;;;;;;;24.30;51.44;102736.00;7280520;19;152497;-63
2022/08/09 09:46:54;;;;;;;;;;;;;;;24.31;51.70;102739.66;7289969;19;155574;-62
2022/08/09 09:49:23;;;;;;;;;;;;;;;24.29;51.56;102737.16;7284755;19;153222;-62
2022/08/09 09:52:10;;;;;;;;;;;;;;;24.31;51.64;102729.22;7287432;19;155853;-62
2022/08/09 09:55:02;;;;;;;;;;;;;;;24.35;51.71;102729.47;7284957;19;155666;-62
2022/08/09 09:57:59;;;;;;;;;;;;;;;24.38;51.67;102733.72;7286516;19;152881;-62
2022/08/09 10:00:45;;;;;;;;;;;;;;;24.41;52.09;102744.44;7284787;19;151861;-62
2022/08/09 10:03:38;;;;;;;;;;;;;;;24.43;52.33;102731.72;7284102;19;152952;-63
2022/08/09 10:06:05;;;;;;;;;;;;;;;24.46;51.99;102736.78;7286704;19;154995;-62
2022/08/09 10:08:32;;;;;;;;;;;;;;;24.47;52.39;102731.97;7288154;19;152571;-62
2022/08/09 10:11:19;;;;;;;;;;;;;;;24.51;51.82;102728.25;7293295;19;155020;-62
2022/08/09 10:14:05;;;;;;;;;;;;;;;24.53;52.04;102731.63;7285542;19;155785;-62
2022/08/09 10:16:33;;;;;;;;;;;;;;;24.55;51.90;102735.00;7286619;19;152237;-62
2022/08/09 10:19:20;;;;;;;;;;;;;;;24.58;51.91;102727.91;7284227;19;152836;-62
2022/08/09 10:21:49;;;;;;;;;;;;;;;24.60;51.40;102722.84;7283319;19;154341;-62
2022/08/09 10:24:18;;;;;;;;;;;;;;;24.61;51.71;102724.53;7285351;19;153182;-62
2022/08/09 10:26:58;;;;;;;;;;;;;;;24.62;51.67;102715.72;7287272;19;152237;-62
2022/08/09 10:29:26;;;;;;;;;;;;;;;24.64;51.51;102721.09;7286384;19;153484;-62
2022/08/09 10:32:13;;;;;;;;;;;;;;;24.65;51.84;102706.69;7291974;19;157667;-62
2022/08/09 10:35:01;;;;;;;;;;;;;;;24.67;51.52;102706.38;7282306;19;155528;-63
2022/08/09 10:37:28;;;;;;;;;;;;;;;24.70;51.41;102712.31;7285865;19;152713;-62
2022/08/09 10:40:04;;;;;;;;;;;;;;;24.71;51.05;102701.84;7283363;19;153157;-62
2022/08/09 10:42:37;;;;;;;;;;;;;;;24.73;51.25;102713.69;7286395;19;153537;-62
2022/08/09 10:45:06;;;;;;;;;;;;;;;24.73;51.04;102703.22;7284349;19;153640;-62
2022/08/09 10:47:45;;;;;;;;;;;;;;;24.74;50.96;102704.91;7285919;19;152125;-62
2022/08/09 10:51:08;;;;;;;;;;;;;;;24.76;50.80;102702.63;7281696;19;154695;-62
2022/08/09 10:53:58;;;;;;;;;;;;;;;24.77;50.96;102698.66;7284019;19;154799;-62
2022/08/09 10:56:32;;;;;;;;;;;;;;;24.80;50.60;102705.72;7292129;19;152962;-62
2022/08/09 10:59:20;;;;;;;;;;;;;;;24.81;50.49;102696.09;7282280;19;152534;-62
2022/08/09 11:01:49;;;;;;;;;;;;;;;24.80;50.94;102695.25;7282551;19;152398;-62
2022/08/09 11:04:36;;;;;;;;;;;;;;;24.85;50.57;102690.72;7282064;19;156207;-62
2022/08/09 11:07:25;;;;;;;;;;;;;;;24.86;50.76;102696.06;7282803;19;154089;-62
2022/08/09 11:09:51;;;;;;;;;;;;;;;24.87;50.39;102696.94;7284479;19;154509;-62
2022/08/09 11:12:27;;;;;;;;;;;;;;;24.87;50.72;102697.78;7285431;19;153744;-62
2022/08/09 11:15:18;;;;;;;;;;;;;;;24.90;49.95;102691.50;7279084;19;153813;-62
2022/08/09 11:17:51;;;;;;;;;;;;;;;24.90;50.63;102687.84;7283014;19;152028;-62
2022/08/09 11:20:41;;;;;;;;;;;;;;;24.91;50.44;102695.19;7286837;19;152981;-62
2022/08/09 11:23:09;;;;;;;;;;;;;;;24.90;50.51;102691.50;7285432;19;152023;-62
2022/08/09 11:25:37;;;;;;;;;;;;;;;24.91;50.33;102686.72;7284468;19;152149;-62
2022/08/09 11:28:29;;;;;;;;;;;;;;;24.93;49.63;102681.63;7284349;19;154231;-62
2022/08/09 11:31:03;;;;;;;;;;;;;;;24.92;50.08;102680.78;7285787;19;152430;-62
2022/08/09 11:33:40;;;;;;;;;;;;;;;24.95;50.22;102680.16;7282262;19;153427;-62
2022/08/09 11:36:09;;;;;;;;;;;;;;;24.96;50.35;102681.00;7282828;19;154927;-62
2022/08/09 11:38:59;;;;;;;;;;;;;;;24.96;49.91;102679.03;7283859;19;152039;-62
2022/08/09 11:41:27;;;;;;;;;;;;;;;25.00;50.04;102673.63;7281364;19;154290;-62
2022/08/09 11:44:06;;;;;;;;;;;;;;;24.98;50.09;102671.09;7290030;19;153613;-62
2022/08/09 11:46:52;;;;;;;;;;;;;;;25.00;50.06;102671.63;7284676;19;153682;-63
2022/08/09 11:49:39;;;;;;;;;;;;;;;25.01;49.95;102667.69;7279204;19;154296;-62
2022/08/09 11:52:26;;;;;;;;;;;;;;;25.01;50.08;102670.50;7284680;19;152800;-63
2022/08/09 11:55:31;;;;;;;;;;;;;;;25.03;49.85;102667.38;7281995;19;155937;-62
2022/08/09 11:58:18;;;;;;;;;;;;;;;25.04;49.90;102652.09;7279467;19;156697;-62
2022/08/09 12:00:58;;;;;;;;;;;;;;;25.06;49.74;102655.47;7283416;19;151989;-62
2022/08/09 12:03:26;;;;;;;;;;;;;;;25.08;49.96;102658.81;7279746;19;152169;-63
2022/08/09 12:06:18;;;;;;;;;;;;;;;25.05;49.75;102651.78;7281623;19;155908;-62
2022/08/09 12:08:53;;;;;;;;;;;;;;;25.08;49.48;102645.53;7291042;19;152533;-62
2022/08/09 12:11:21;;;;;;;;;;;;;;;25.08;49.37;102641.84;7281741;19;153703;-62
2022/08/09 12:13:49;;;;;;;;;;;;;;;25.07;49.55;102637.38;7280954;19;152700;-62
2022/08/09 12:16:37;;;;;;;;;;;;;;;25.06;49.50;102638.50;7283866;19;155472;-62
2022/08/09 12:19:07;;;;;;;;;;;;;;;25.06;49.49;102627.19;7277704;19;153145;-63
2022/08/09 12:21:35;;;;;;;;;;;;;;;25.08;49.41;102622.91;7282716;19;152028;-62
2022/08/09 12:24:05;;;;;;;;;;;;;;;25.08;49.32;102616.41;7280820;19;153257;-62
2022/08/09 12:26:38;;;;;;;;;;;;;;;25.07;49.56;102612.75;7282684;19;154868;-62
2022/08/09 12:29:06;;;;;;;;;;;;;;;25.08;49.72;102610.75;7283940;19;152227;-62
2022/08/09 12:32:02;;;;;;;;;;;;;;;25.09;49.97;102610.44;7289373;19;154414;-62
2022/08/09 12:34:34;;;;;;;;;;;;;;;25.12;49.86;102603.38;7279452;19;151760;-62
2022/08/09 12:37:02;;;;;;;;;;;;;;;25.10;49.32;102603.66;7281839;19;153518;-62
2022/08/09 12:40:04;;;;;;;;;;;;;;;25.12;49.99;102609.03;7278613;19;154944;-62
2022/08/09 12:42:31;;;;;;;;;;;;;;;25.13;49.58;102611.53;7279740;19;151949;-62
2022/08/09 12:44:59;;;;;;;;;;;;;;;25.12;49.43;102595.69;7282236;19;152852;-62
2022/08/09 12:47:26;;;;;;;;;;;;;;;25.11;49.65;102596.88;7280409;19;153196;-62
2022/08/09 12:50:16;;;;;;;;;;;;;;;25.12;49.77;102601.34;7279444;19;152124;-63
2022/08/09 12:52:51;;;;;;;;;;;;;;;25.13;49.83;102596.53;7288656;19;153058;-63
2022/08/09 12:55:35;;;;;;;;;;;;;;;25.12;49.51;102595.69;7281501;19;152217;-62
2022/08/09 12:58:21;;;;;;;;;;;;;;;25.12;49.45;102590.03;7281895;19;155882;-62
2022/08/09 13:00:57;;;;;;;;;;;;;;;25.15;49.83;102586.63;7281361;19;153559;-63
2022/08/09 13:03:30;;;;;;;;;;;;;;;25.15;49.43;102585.78;7280827;19;152307;-63
2022/08/09 13:06:24;;;;;;;;;;;;;;;25.15;49.56;102588.63;7279409;19;157417;-62
2022/08/09 13:09:05;;;;;;;;;;;;;;;25.17;49.54;102586.31;7279651;19;154312;-62
2022/08/09 13:11:33;;;;;;;;;;;;;;;25.16;49.69;102577.00;7283243;19;152543;-62